Time;durP1;ratioP1;P1;durP2;ratioP2;P2;SDS_P1;SDS_P2;PMS_P1;PMS_P2;Temp;Humidity;BMP_temperature;BMP_pressure;BME280_temperature;BME280_humidity;BME280_pressure;Samples;Min_cycle;Max_cycle;Signal;HPM_P1;HPM_P2
2022/09/01 00:05:17;;;;;;;4.28;2.00;;;;;;;16.08;74.13;101916.44;4989413;28;20034;-49
2022/09/01 00:07:45;;;;;;;6.90;1.98;;;;;;;16.07;74.41;101904.44;4989429;28;20489;-44
2022/09/01 00:10:11;;;;;;;5.78;1.70;;;;;;;16.08;74.51;101911.69;4992377;28;20384;-46
2022/09/01 00:12:38;;;;;;;2.97;1.65;;;;;;;16.05;74.67;101904.00;5003385;28;20046;-45
2022/09/01 00:15:09;;;;;;;5.65;1.95;;;;;;;16.04;74.88;101907.97;4993809;28;20054;-44
2022/09/01 00:17:36;;;;;;;4.72;1.55;;;;;;;16.02;74.88;101907.50;4975285;28;20046;-50
2022/09/01 00:20:03;;;;;;;3.05;2.20;;;;;;;16.04;75.00;101905.19;4991484;28;20034;-49
2022/09/01 00:22:32;;;;;;;11.20;1.98;;;;;;;16.05;75.10;101901.22;4991201;28;20096;-45
2022/09/01 00:25:00;;;;;;;4.75;1.80;;;;;;;16.07;75.29;101896.06;4987473;28;20169;-47
2022/09/01 00:27:27;;;;;;;5.45;1.92;;;;;;;16.09;75.23;101895.72;4992225;28;20125;-47
2022/09/01 00:29:57;;;;;;;7.28;1.70;;;;;;;16.09;75.43;101895.72;4990853;28;20045;-47
2022/09/01 00:32:24;;;;;;;8.82;2.88;;;;;;;16.09;75.46;101895.72;4989917;28;20096;-46
2022/09/01 00:34:51;;;;;;;8.88;1.95;;;;;;;16.10;75.73;101889.78;4993005;28;20101;-47
2022/09/01 00:37:17;;;;;;;5.93;2.20;;;;;;;16.09;75.75;101884.56;4990108;28;20069;-48
2022/09/01 00:39:44;;;;;;;5.78;2.65;;;;;;;16.08;75.86;101882.91;4991731;28;20054;-46
2022/09/01 00:42:11;;;;;;;6.22;1.60;;;;;;;16.09;76.08;101890.16;4979671;28;20046;-43
2022/09/01 00:44:38;;;;;;;8.07;2.30;;;;;;;16.12;76.25;101893.06;4988202;28;20041;-49
2022/09/01 00:47:05;;;;;;;8.65;2.67;;;;;;;16.15;76.15;101889.53;4990246;28;20092;-45
2022/09/01 00:49:41;;;;;;;6.30;2.13;;;;;;;16.17;76.33;101892.81;4991283;28;20489;-46
2022/09/01 00:52:15;;;;;;;4.97;1.48;;;;;;;16.20;76.13;101889.28;4996901;28;20042;-45
2022/09/01 00:54:49;;;;;;;5.40;1.83;;;;;;;16.18;76.38;101888.00;4992019;28;20089;-44
2022/09/01 00:57:17;;;;;;;4.70;1.90;;;;;;;16.18;76.50;101882.41;4992227;28;20094;-44
2022/09/01 00:59:53;;;;;;;7.13;1.63;;;;;;;16.24;76.49;101887.41;4991913;28;20042;-46
2022/09/01 01:02:21;;;;;;;7.78;2.05;;;;;;;16.27;76.46;101883.91;4990589;28;20092;-46
2022/09/01 01:04:48;;;;;;;7.95;2.08;;;;;;;16.26;76.63;101879.47;4988841;28;20048;-46
2022/09/01 01:07:16;;;;;;;7.57;1.90;;;;;;;16.25;76.54;101874.25;4991138;28;20098;-45
2022/09/01 01:09:45;;;;;;;4.60;1.55;;;;;;;16.23;76.92;101869.00;4991040;28;20038;-46
2022/09/01 01:12:17;;;;;;;6.55;1.60;;;;;;;16.23;76.91;101863.41;4991084;28;20038;-45
2022/09/01 01:14:51;;;;;;;5.30;1.85;;;;;;;16.21;76.97;101873.31;4988218;28;20046;-49
2022/09/01 01:17:20;;;;;;;8.90;2.00;;;;;;;16.22;77.07;101866.56;4988136;28;20444;-48
2022/09/01 01:23:01;;;;;;;;;;;;;;;16.26;77.08;101868.28;4996003;28;20096;-48
2022/09/01 01:25:35;;;;;;;8.77;2.25;;;;;;;16.30;76.61;101874.00;4991861;28;20261;-46
2022/09/01 01:28:09;;;;;;;3.95;1.95;;;;;;;16.31;76.95;101859.66;4991954;28;20508;-44
2022/09/01 01:30:40;;;;;;;4.82;1.67;;;;;;;16.30;77.13;101869.22;4987146;28;20078;-44
2022/09/01 01:33:08;;;;;;;8.88;1.92;;;;;;;16.33;77.18;101862.09;4998414;28;20509;-44
2022/09/01 01:35:37;;;;;;;6.00;1.60;;;;;;;16.39;77.05;101863.44;5007141;28;20046;-44
2022/09/01 01:38:06;;;;;;;6.80;1.80;;;;;;;16.43;77.05;101867.16;4995360;28;20385;-47
2022/09/01 01:40:34;;;;;;;4.43;1.77;;;;;;;16.40;77.34;101857.50;4996778;28;20424;-45
2022/09/01 01:43:02;;;;;;;7.13;1.98;;;;;;;16.38;77.52;101848.69;4994941;28;20050;-45
2022/09/01 01:45:29;;;;;;;10.85;3.40;;;;;;;16.41;77.53;101849.94;4997729;28;20082;-46
2022/09/01 01:47:56;;;;;;;11.25;2.78;;;;;;;16.42;77.56;101838.41;4996550;28;20050;-45
2022/09/01 01:50:28;;;;;;;10.40;2.95;;;;;;;16.43;77.66;101845.63;4985899;28;20050;-43
2022/09/01 01:52:58;;;;;;;11.65;2.35;;;;;;;16.41;77.79;101845.16;4994914;28;20073;-45
2022/09/01 01:55:29;;;;;;;8.57;2.25;;;;;;;16.41;77.84;101847.94;4995943;28;20065;-43
2022/09/01 01:57:59;;;;;;;9.70;2.53;;;;;;;16.41;77.87;101835.97;4995622;28;20059;-44
2022/09/01 02:04:32;;;;;;;11.00;3.17;;;;;;;16.38;77.66;101840.31;4981312;28;20362;-45
2022/09/01 02:07:00;;;;;;;12.45;2.67;;;;;;;16.37;77.88;101835.03;4990728;28;20129;-45
2022/09/01 02:09:26;;;;;;;11.70;3.65;;;;;;;16.37;77.91;101840.63;4975533;28;20093;-43
2022/09/01 02:11:56;;;;;;;15.35;3.03;;;;;;;16.35;78.03;101846.59;4991841;28;20046;-45
2022/09/01 02:14:23;;;;;;;13.68;2.63;;;;;;;16.35;78.18;101843.81;4994051;28;20042;-43
2022/09/01 02:16:51;;;;;;;14.68;3.10;;;;;;;16.34;78.19;101839.38;4993820;28;20038;-43
2022/09/01 02:19:19;;;;;;;15.20;4.00;;;;;;;16.34;78.17;101839.38;4989016;28;20125;-46
2022/09/01 02:21:54;;;;;;;7.38;2.33;;;;;;;16.35;78.06;101843.81;4993988;28;20046;-43
2022/09/01 02:24:29;;;;;;;13.45;4.07;;;;;;;16.37;77.79;101846.22;4992337;28;20038;-44
2022/09/01 02:26:58;;;;;;;12.32;2.70;;;;;;;16.35;77.67;101843.81;4977236;28;20447;-44
2022/09/01 02:29:25;;;;;;;14.40;3.28;;;;;;;16.34;77.79;101847.75;4993166;28;20069;-44
2022/09/01 02:31:52;;;;;;;8.25;2.65;;;;;;;16.32;77.83;101838.94;4992701;28;20081;-46
2022/09/01 02:34:22;;;;;;;6.05;2.78;;;;;;;16.33;77.80;101834.97;4993804;28;20096;-45
2022/09/01 02:36:52;;;;;;;11.88;2.70;;;;;;;16.34;77.74;101835.75;4991928;28;20046;-45
2022/09/01 02:39:22;;;;;;;12.90;3.03;;;;;;;16.32;77.60;101841.72;4991770;28;20047;-45
2022/09/01 02:42:12;;;;;;;9.93;2.40;;;;;;;16.32;77.48;101844.50;4991058;28;20042;-45
2022/09/01 02:44:59;;;;;;;10.77;2.88;;;;;;;16.31;77.67;101842.06;4994280;28;20084;-46
2022/09/01 02:47:49;;;;;;;9.60;3.42;;;;;;;16.29;77.62;101839.63;4994618;28;20496;-44
2022/09/01 02:50:40;;;;;;;10.85;3.15;;;;;;;16.31;77.79;101830.88;4992297;28;20070;-47
2022/09/01 02:53:33;;;;;;;11.05;3.13;;;;;;;16.32;77.56;101838.94;4995849;28;20061;-44
2022/09/01 02:56:23;;;;;;;8.52;2.50;;;;;;;16.32;77.62;101838.94;4991019;28;20050;-46
2022/09/01 02:59:12;;;;;;;10.10;2.80;;;;;;;16.33;77.75;101837.78;4973886;28;20038;-45
2022/09/01 04:26:57;;;;;;;8.32;2.88;;;;;;;15.81;78.14;101786.78;4996189;23;20057;-46
2022/09/01 04:38:53;;;;;;;6.72;3.05;;;;;;;15.73;78.16;101782.16;5004282;28;20044;-45
2022/09/01 04:41:21;;;;;;;5.15;2.85;;;;;;;15.70;78.11;101766.94;5008242;28;20484;-46
2022/09/01 04:43:50;;;;;;;6.68;2.78;;;;;;;15.66;78.46;101771.63;5010541;28;20415;-52
2022/09/01 04:46:19;;;;;;;6.07;2.63;;;;;;;15.64;78.40;101775.94;5009940;28;20046;-45
2022/09/01 04:48:47;;;;;;;6.75;2.95;;;;;;;15.62;78.55;101781.06;5008798;28;20038;-45
2022/09/01 04:51:15;;;;;;;11.63;2.97;;;;;;;15.62;78.61;101776.25;4996138;28;20053;-44
2022/09/01 04:53:47;;;;;;;6.47;2.50;;;;;;;15.61;78.56;101776.63;5008723;28;20046;-44
2022/09/01 04:56:18;;;;;;;12.38;4.50;;;;;;;15.60;78.47;101775.00;5009734;28;20096;-44
2022/09/01 04:58:46;;;;;;;8.10;2.80;;;;;;;15.57;78.32;101779.31;5010463;28;20498;-45
2022/09/01 05:01:16;;;;;;;5.32;2.80;;;;;;;15.56;78.38;101782.47;5010140;28;20051;-46
2022/09/01 05:03:44;;;;;;;7.35;3.65;;;;;;;15.51;78.50;101777.13;5011417;28;20049;-44
2022/09/01 05:06:16;;;;;;;7.82;2.85;;;;;;;15.51;78.51;101779.94;5010679;28;20054;-45
2022/09/01 05:08:47;;;;;;;9.65;3.58;;;;;;;15.48;78.46;101783.41;5014720;28;20042;-46
2022/09/01 05:15:45;;;;;;;11.82;3.58;;;;;;;15.46;78.29;101772.59;5013327;28;20034;-44
2022/09/01 05:18:22;;;;;;;8.13;3.00;;;;;;;15.47;78.31;101779.81;5014706;28;20050;-46
2022/09/01 05:21:09;;;;;;;7.90;4.10;;;;;;;15.48;78.23;101775.03;5012822;28;20499;-44
2022/09/01 05:24:00;;;;;;;17.58;4.32;;;;;;;15.48;78.60;101772.25;4999567;28;20050;-46
2022/09/01 05:26:47;;;;;;;14.50;4.80;;;;;;;15.49;78.46;101774.69;5013171;28;20054;-46
2022/09/01 05:29:36;;;;;;;13.80;4.90;;;;;;;15.50;78.65;101783.88;5012688;28;20151;-45
2022/09/01 05:32:24;;;;;;;19.40;4.18;;;;;;;15.51;78.79;101791.91;5014427;28;20128;-45
2022/09/01 05:35:12;;;;;;;10.07;4.32;;;;;;;15.51;78.79;101785.50;5006775;28;20476;-45
2022/09/01 05:37:59;;;;;;;10.15;3.05;;;;;;;15.48;79.02;101787.03;5014816;28;20511;-44
2022/09/01 05:40:58;;;;;;;7.57;4.18;;;;;;;15.48;79.46;101775.88;5014076;28;20135;-45
2022/09/01 05:43:48;;;;;;;10.27;3.70;;;;;;;15.48;79.37;101775.03;5008491;28;20137;-45
2022/09/01 05:46:38;;;;;;;10.60;3.92;;;;;;;15.48;79.66;101772.25;5014445;28;20503;-45
2022/09/01 05:49:29;;;;;;;9.85;4.32;;;;;;;15.49;79.89;101776.69;4999613;28;20044;-45
2022/09/01 05:52:23;;;;;;;7.82;3.90;;;;;;;15.48;80.04;101778.66;5000764;28;20180;-46
2022/09/01 05:55:11;;;;;;;10.57;4.75;;;;;;;15.51;80.07;101779.94;5011531;28;20046;-45
2022/09/01 05:57:58;;;;;;;17.25;4.50;;;;;;;15.53;79.91;101778.41;5013289;28;20132;-46
2022/09/01 06:00:47;;;;;;;12.93;3.67;;;;;;;15.55;80.02;101775.25;5011192;28;20140;-44
2022/09/01 06:03:35;;;;;;;7.07;3.78;;;;;;;15.58;79.75;101780.13;5012455;28;20103;-45
2022/09/01 06:06:26;;;;;;;11.52;3.75;;;;;;;15.60;79.77;101777.78;5013933;28;20402;-45
2022/09/01 06:09:16;;;;;;;9.15;4.07;;;;;;;15.57;79.58;101779.31;5013002;28;20515;-46
2022/09/01 06:12:05;;;;;;;10.25;3.50;;;;;;;15.57;79.75;101767.31;5013815;28;20128;-45
2022/09/01 06:14:51;;;;;;;8.75;2.92;;;;;;;15.59;79.55;101785.38;5014277;28;20096;-45
2022/09/01 06:17:23;;;;;;;8.23;3.13;;;;;;;15.61;79.72;101780.25;5011730;28;20049;-48
2022/09/01 06:19:55;;;;;;;12.02;4.07;;;;;;;15.63;79.70;101783.47;5013684;28;20440;-45
2022/09/01 06:22:25;;;;;;;19.48;5.95;;;;;;;15.66;79.76;101779.16;5015224;28;20073;-45
2022/09/01 06:24:53;;;;;;;14.68;3.65;;;;;;;15.67;79.90;101780.81;5014821;28;20395;-45
2022/09/01 06:27:27;;;;;;;10.05;4.05;;;;;;;15.68;80.20;101779.63;5011027;28;20088;-45
2022/09/01 06:29:55;;;;;;;13.38;3.53;;;;;;;15.71;80.43;101785.31;5012783;28;20033;-46
2022/09/01 06:32:24;;;;;;;14.02;3.78;;;;;;;15.74;80.40;101783.78;5008230;28;20411;-47
2022/09/01 06:34:52;;;;;;;14.30;3.60;;;;;;;15.77;80.70;101783.09;5013736;28;20042;-45
2022/09/01 06:37:22;;;;;;;12.63;3.75;;;;;;;15.80;81.02;101782.38;5016081;28;20038;-49
2022/09/01 06:43:40;;;;;;;11.63;3.90;;;;;;;15.89;81.06;101785.81;5013703;28;20081;-46
2022/09/01 06:46:08;;;;;;;5.55;2.50;;;;;;;15.93;81.24;101783.13;5015450;28;20038;-49
2022/09/01 06:48:44;;;;;;;18.55;3.67;;;;;;;15.96;81.28;101788.84;5014779;28;20065;-50
2022/09/01 06:51:20;;;;;;;13.05;4.18;;;;;;;16.00;81.41;101786.94;5014735;28;20447;-46
2022/09/01 06:54:38;;;;;;;14.35;3.35;;;;;;;16.04;81.31;101784.25;5013960;28;20092;-47
2022/09/01 06:57:05;;;;;;;10.57;2.88;;;;;;;16.07;81.15;101784.31;5014245;28;20042;-46
2022/09/01 06:59:53;;;;;;;8.93;2.70;;;;;;;16.15;81.15;101788.94;5014795;28;20046;-49
2022/09/01 07:02:21;;;;;;;14.85;2.63;;;;;;;16.24;81.07;101780.41;5013362;28;20446;-50
2022/09/01 07:04:53;;;;;;;8.23;3.28;;;;;;;16.33;81.04;101778.25;5010158;28;20041;-46
2022/09/01 07:07:21;;;;;;;9.18;2.60;;;;;;;16.43;80.71;101784.13;5012813;28;20050;-46
2022/09/01 07:10:09;;;;;;;6.82;2.55;;;;;;;16.52;80.64;101785.94;5014184;28;20551;-45
2022/09/01 07:12:54;;;;;;;8.95;2.63;;;;;;;16.57;80.31;101791.28;5014694;28;20042;-45
2022/09/01 07:15:42;;;;;;;12.40;2.67;;;;;;;16.54;79.91;101789.22;5014419;28;20054;-43
2022/09/01 07:18:30;;;;;;;11.18;3.40;;;;;;;16.48;79.46;101790.59;5014655;28;20104;-44
2022/09/01 07:20:58;;;;;;;6.57;2.92;;;;;;;16.39;79.47;101788.81;5014600;28;20052;-44
2022/09/01 07:23:45;;;;;;;6.28;2.90;;;;;;;16.35;79.53;101787.09;4988047;28;20100;-42
2022/09/01 07:30:23;;;;;;;6.78;2.80;;;;;;;16.32;79.51;101793.41;5018224;28;20407;-45
2022/09/01 07:32:51;;;;;;;11.73;2.42;;;;;;;16.36;79.65;101791.53;5014647;28;20046;-44
2022/09/01 07:35:21;;;;;;;9.73;2.60;;;;;;;16.43;79.37;101788.91;5014651;28;20042;-44
2022/09/01 07:37:49;;;;;;;9.00;3.10;;;;;;;16.49;79.30;101789.44;5014292;28;20065;-44
2022/09/01 07:40:37;;;;;;;16.45;3.28;;;;;;;16.54;79.17;101800.41;5014769;28;20046;-43
2022/09/01 07:43:26;;;;;;;5.78;2.78;;;;;;;16.60;79.07;101787.78;5002535;28;20080;-45
2022/09/01 07:46:20;;;;;;;8.93;2.90;;;;;;;16.66;79.04;101794.69;5014367;28;20076;-43
2022/09/01 07:49:23;;;;;;;9.82;3.38;;;;;;;16.73;78.80;101787.28;5002932;28;20065;-45
2022/09/01 07:56:41;;;;;;;7.13;2.40;;;;;;;16.90;78.14;101788.91;5011336;28;20038;-44
2022/09/01 07:59:29;;;;;;;10.73;2.53;;;;;;;16.94;78.01;101787.03;5014561;28;20181;-43
2022/09/01 08:02:17;;;;;;;14.45;3.25;;;;;;;17.01;77.79;101785.22;5013673;28;20399;-45
2022/09/01 08:05:07;;;;;;;6.68;2.20;;;;;;;17.25;77.60;101792.56;5010651;28;20127;-43
2022/09/01 08:12:06;;;;;;;7.55;2.58;;;;;;;17.67;76.65;101786.28;5012893;28;20396;-43
2022/09/01 08:14:53;;;;;;;7.57;2.88;;;;;;;17.64;76.20;101788.66;5012208;28;20474;-45
2022/09/01 08:18:00;;;;;;;10.50;2.72;;;;;;;17.51;75.54;101783.53;5015069;28;20428;-44
2022/09/01 08:20:48;;;;;;;12.70;2.45;;;;;;;17.34;75.32;101790.34;5007451;28;20064;-48
2022/09/01 08:23:36;;;;;;;7.15;2.63;;;;;;;17.23;75.66;101794.09;5011960;28;20060;-44
2022/09/01 08:34:27;;;;;;;9.80;2.75;;;;;;;17.25;75.37;101792.56;5006918;28;20065;-44
2022/09/01 08:36:54;;;;;;;4.40;2.22;;;;;;;17.34;75.39;101790.34;5012743;28;20541;-44
2022/09/01 08:39:20;;;;;;;6.80;2.40;;;;;;;17.49;75.57;101780.28;5013864;28;20096;-43
2022/09/01 08:46:07;;;;;;;7.97;3.63;;;;;;;17.85;74.53;101781.88;5020333;28;20072;-44
2022/09/01 08:48:41;;;;;;;7.22;2.72;;;;;;;18.39;74.73;101773.31;5008222;28;20052;-43
2022/09/01 08:51:37;;;;;;;8.60;2.20;;;;;;;18.67;73.18;101774.63;5019158;28;20041;-43
2022/09/01 08:54:42;;;;;;;5.15;2.33;;;;;;;18.92;72.90;101774.22;5018738;28;20053;-45
2022/09/01 08:57:18;;;;;;;5.68;2.40;;;;;;;18.97;71.75;101768.28;5018956;28;20041;-46
2022/09/01 08:59:46;;;;;;;6.47;2.08;;;;;;;18.98;71.03;101769.91;5019735;28;20553;-43
2022/09/01 09:17:33;;;;;;;6.95;2.47;;;;;;;21.15;64.39;101759.53;5013049;28;20034;-44
2022/09/01 09:23:38;;;;;;;5.90;1.70;;;;;;;22.78;60.82;101757.25;5019808;28;20073;-43
2022/09/01 09:26:05;;;;;;;7.15;1.80;;;;;;;23.07;59.08;101747.53;5020509;28;20049;-43
2022/09/01 09:28:34;;;;;;;3.30;1.50;;;;;;;23.77;57.36;101749.34;5002176;28;20046;-43
2022/09/01 09:39:16;;;;;;;6.63;1.80;;;;;;;24.69;53.04;101754.41;4998080;28;20054;-44
2022/09/01 09:42:03;;;;;;;5.05;2.33;;;;;;;25.14;53.04;101749.56;4999018;28;20038;-44
2022/09/01 09:44:31;;;;;;;7.20;2.25;;;;;;;25.56;51.42;101745.47;4998812;28;20411;-43
2022/09/01 09:50:49;;;;;;;7.53;1.50;;;;;;;26.11;49.56;101745.94;4999874;28;20030;-46
2022/09/01 09:53:28;;;;;;;4.88;1.02;;;;;;;25.95;48.63;101740.88;4991557;28;20448;-46
2022/09/01 09:55:59;;;;;;;8.05;2.35;;;;;;;25.89;48.09;101745.44;4978372;28;20396;-46
2022/09/01 10:02:30;;;;;;;7.38;1.33;;;;;;;25.68;48.16;101736.41;4983061;28;19917;-46
2022/09/01 10:16:31;;;;;;;4.55;2.42;;;;;;;25.64;47.39;101730.78;4990194;28;20046;-45
2022/09/01 10:19:00;;;;;;;4.10;2.03;;;;;;;25.81;46.89;101726.91;4996371;28;20109;-45
2022/09/01 10:21:34;;;;;;;3.28;1.80;;;;;;;25.63;47.10;101732.00;4996358;28;20046;-46
2022/09/01 10:27:56;;;;;;;8.30;1.55;;;;;;;25.49;47.20;101720.84;4989462;28;20231;-44
2022/09/01 10:30:24;;;;;;;6.80;1.73;;;;;;;25.67;46.80;101718.59;4995151;28;20096;-45
2022/09/01 10:36:44;;;;;;;11.93;1.60;;;;;;;25.63;46.41;101714.97;4988045;28;20049;-45
2022/09/01 10:39:15;;;;;;;4.78;1.77;;;;;;;25.52;46.34;101714.34;5014890;28;20088;-45
2022/09/01 10:41:49;;;;;;;7.18;2.08;;;;;;;24.77;46.83;101713.47;5014370;28;20046;-45
2022/09/01 10:44:32;;;;;;;8.13;1.70;;;;;;;23.90;48.59;101716.56;5015676;28;20038;-46
2022/09/01 10:47:28;;;;;;;3.95;1.52;;;;;;;23.26;49.72;101716.00;5014584;28;20049;-45
2022/09/01 10:50:00;;;;;;;6.90;1.52;;;;;;;22.67;51.32;101711.25;5015421;28;20069;-47
2022/09/01 10:52:41;;;;;;;5.72;1.52;;;;;;;22.14;52.46;101709.22;5015102;28;20100;-46
2022/09/01 10:55:25;;;;;;;11.10;1.98;;;;;;;21.76;52.99;101713.50;5012578;28;20042;-44
2022/09/01 10:58:29;;;;;;;6.10;1.48;;;;;;;21.18;54.70;101708.03;5015533;28;20452;-44
2022/09/01 11:01:16;;;;;;;3.55;1.08;;;;;;;20.52;56.13;101711.19;5014761;28;20565;-45
2022/09/01 11:04:03;;;;;;;4.68;1.70;;;;;;;20.22;57.10;101705.69;5014528;28;20399;-44
2022/09/01 11:06:40;;;;;;;5.20;1.50;;;;;;;20.21;57.98;101704.06;5015070;28;20042;-45
2022/09/01 11:17:12;;;;;;;3.78;1.50;;;;;;;19.63;59.53;101689.81;5012408;28;20125;-44
2022/09/01 11:19:46;;;;;;;5.35;1.42;;;;;;;19.56;60.08;101688.91;5011357;28;20046;-45
2022/09/01 11:22:22;;;;;;;3.92;1.30;;;;;;;19.69;60.57;101690.28;5010585;28;20041;-48
2022/09/01 11:25:33;;;;;;;7.30;1.40;;;;;;;19.85;60.17;101697.28;5012946;28;20050;-50
2022/09/01 11:28:15;;;;;;;4.40;1.73;;;;;;;19.85;60.11;101699.28;5005564;28;20507;-45
2022/09/01 11:31:03;;;;;;;4.97;1.92;;;;;;;19.65;60.91;101687.41;5014916;28;20137;-45
2022/09/01 11:33:57;;;;;;;8.13;1.95;;;;;;;19.63;61.01;101681.38;5014138;28;20484;-45
2022/09/01 11:36:48;;;;;;;5.40;1.60;;;;;;;19.44;60.87;101689.97;5006283;28;20049;-44
2022/09/01 11:40:01;;;;;;;7.53;1.77;;;;;;;19.51;61.01;101692.88;5002279;28;20049;-44
2022/09/01 11:42:52;;;;;;;5.07;1.88;;;;;;;19.61;61.09;101680.97;4996570;28;20092;-44
2022/09/01 11:45:32;;;;;;;6.57;1.65;;;;;;;19.76;61.43;101688.34;5010398;28;20060;-44
2022/09/01 11:48:05;;;;;;;2.47;1.30;;;;;;;19.84;61.12;101687.22;5010216;28;20488;-44
2022/09/01 11:50:34;;;;;;;5.45;1.70;;;;;;;19.90;61.02;101690.50;5011226;28;20069;-45
2022/09/01 11:53:05;;;;;;;4.75;1.55;;;;;;;19.98;61.05;101690.19;5009594;28;20488;-45
2022/09/01 11:55:44;;;;;;;9.60;2.17;;;;;;;20.14;60.87;101689.94;5011366;28;20049;-45
2022/09/01 11:58:33;;;;;;;6.93;1.65;;;;;;;20.32;60.64;101682.50;5011362;28;20042;-44
2022/09/01 12:01:15;;;;;;;3.10;1.60;;;;;;;20.60;60.16;101688.34;5010397;28;20092;-45
2022/09/01 12:03:42;;;;;;;;;;;;;;;20.72;60.33;101681.59;5010851;28;20080;-44
2022/09/01 12:06:12;;;;;;;8.43;2.60;;;;;;;20.80;60.01;101683.25;5009827;28;19928;-44
2022/09/01 12:08:49;;;;;;;2.50;1.30;;;;;;;20.72;59.45;101687.22;5008901;28;20100;-44
2022/09/01 12:11:24;;;;;;;4.68;1.40;;;;;;;20.67;59.22;101678.34;5010781;28;20939;-44
2022/09/01 12:13:55;;;;;;;5.95;2.10;;;;;;;20.69;59.57;101682.38;5010361;28;20038;-45
2022/09/01 12:16:22;;;;;;;8.30;1.55;;;;;;;20.73;59.89;101674.75;5008867;28;20471;-44
2022/09/01 12:18:52;;;;;;;9.70;2.03;;;;;;;20.78;59.61;101680.03;5009494;28;20052;-46
2022/09/01 12:21:28;;;;;;;7.05;1.63;;;;;;;20.79;59.43;101672.38;5009483;28;20495;-45
2022/09/01 12:24:10;;;;;;;3.90;1.52;;;;;;;20.71;59.54;101676.34;5008769;28;20096;-44
2022/09/01 12:27:04;;;;;;;7.13;2.50;;;;;;;20.60;59.06;101673.47;5011040;28;20038;-45
2022/09/01 12:29:32;;;;;;;4.05;1.17;;;;;;;20.52;58.63;101671.78;5007814;28;20133;-45
2022/09/01 12:32:00;;;;;;;7.32;1.63;;;;;;;20.51;59.10;101670.19;5008531;28;20066;-46
2022/09/01 12:34:38;;;;;;;5.75;1.90;;;;;;;20.45;58.83;101669.75;5011247;28;20380;-45
2022/09/01 12:37:09;;;;;;;15.85;2.17;;;;;;;20.50;58.82;101666.56;5011794;28;20074;-44
2022/09/01 12:39:48;;;;;;;3.92;1.42;;;;;;;20.62;58.18;101665.47;5010711;28;20041;-44
2022/09/01 12:42:18;;;;;;;3.10;1.88;;;;;;;20.76;58.65;101654.28;5011510;28;20061;-45
2022/09/01 12:44:47;;;;;;;5.53;1.58;;;;;;;20.98;58.40;101658.03;5009325;28;20108;-45
2022/09/01 12:47:46;;;;;;;5.68;1.45;;;;;;;20.97;58.37;101659.25;5009916;28;20042;-45
2022/09/01 12:50:13;;;;;;;4.03;1.50;;;;;;;20.96;58.17;101657.63;5009308;28;20416;-45
2022/09/01 12:52:51;;;;;;;4.55;1.70;;;;;;;21.04;58.43;101660.09;5009487;28;20504;-45
2022/09/01 12:55:24;;;;;;;11.35;2.10;;;;;;;20.99;57.98;101652.03;5010491;28;20100;-45
2022/09/01 12:58:11;;;;;;;3.13;1.30;;;;;;;21.17;58.07;101655.75;5020559;28;20046;-46
2022/09/01 13:00:59;;;;;;;4.65;1.70;;;;;;;21.16;57.91;101644.88;5009768;28;20081;-48
2022/09/01 13:03:28;;;;;;;4.05;1.40;;;;;;;21.09;57.68;101651.28;5009213;28;20046;-45
2022/09/01 13:06:00;;;;;;;6.10;1.80;;;;;;;20.99;58.01;101645.56;5009420;28;20038;-50
2022/09/01 13:08:34;;;;;;;8.38;1.80;;;;;;;21.00;58.14;101642.34;5012369;28;20594;-49
2022/09/01 13:11:13;;;;;;;8.15;1.88;;;;;;;20.86;58.57;101647.94;5008898;28;20422;-49
2022/09/01 13:13:39;;;;;;;6.82;1.80;;;;;;;20.86;58.61;101636.66;5010071;28;20041;-45
2022/09/01 13:16:11;;;;;;;5.63;1.65;;;;;;;20.85;58.37;101635.03;5016790;28;20041;-45
2022/09/01 13:18:41;;;;;;;4.80;1.40;;;;;;;20.91;58.43;101638.28;4994467;28;20435;-45
2022/09/01 13:21:30;;;;;;;6.10;1.45;;;;;;;20.90;58.65;101622.59;5009589;28;20124;-50
2022/09/01 13:23:57;;;;;;;6.03;1.55;;;;;;;21.12;58.36;101622.34;5009452;28;20046;-45
2022/09/01 13:26:25;;;;;;;3.72;1.48;;;;;;;21.19;57.81;101625.19;5010215;28;20041;-44
2022/09/01 13:28:52;;;;;;;6.07;1.27;;;;;;;21.31;57.29;101617.59;5013185;28;20072;-45
2022/09/01 13:31:19;;;;;;;4.05;1.55;;;;;;;21.33;56.77;101615.16;5020038;28;20045;-49
2022/09/01 13:33:55;;;;;;;4.45;1.35;;;;;;;21.42;56.78;101609.97;5015850;28;20050;-50
2022/09/01 13:40:32;;;;;;;5.97;1.70;;;;;;;21.97;56.05;101619.75;5003190;28;20484;-47
2022/09/01 13:43:00;;;;;;;4.43;1.50;;;;;;;21.99;55.85;101611.69;5010065;28;20046;-47
2022/09/01 13:45:28;;;;;;;4.47;1.60;;;;;;;22.17;55.77;101620.16;5012493;28;20096;-48
2022/09/01 13:52:01;;;;;;;13.93;5.30;;;;;;;22.24;54.43;101609.66;5004274;28;20037;-45
2022/09/01 13:54:28;;;;;;;8.85;2.80;;;;;;;22.22;54.66;101600.81;5007659;28;20033;-45
2022/09/01 13:56:55;;;;;;;5.32;2.28;;;;;;;22.14;54.75;101599.22;5016509;28;20038;-45
2022/09/01 13:59:23;;;;;;;10.38;4.65;;;;;;;22.23;54.81;101595.97;5016037;28;20057;-47
2022/09/01 14:01:50;;;;;;;6.80;1.90;;;;;;;22.40;53.71;101601.59;5015302;28;20049;-49
2022/09/01 14:04:18;;;;;;;5.40;2.33;;;;;;;22.16;53.61;101602.41;5016292;28;20108;-49
2022/09/01 14:10:40;;;;;;;9.95;3.58;;;;;;;22.28;54.60;101587.91;5003622;28;20029;-45
2022/09/01 14:13:08;;;;;;;16.90;5.57;;;;;;;22.19;54.38;101590.34;5011575;28;20089;-45
2022/09/01 14:15:35;;;;;;;6.30;2.20;;;;;;;22.10;54.77;101581.50;5009384;28;20046;-46
2022/09/01 14:18:03;;;;;;;10.95;3.38;;;;;;;22.06;54.53;101572.22;5013568;28;20435;-47
2022/09/01 14:20:34;;;;;;;11.93;5.63;;;;;;;22.23;53.95;101567.78;5015500;28;20566;-46
2022/09/01 14:23:03;;;;;;;15.82;5.82;;;;;;;22.44;53.78;101568.56;4998347;28;20128;-46
2022/09/01 14:29:51;;;;;;;7.82;2.03;;;;;;;21.76;53.07;101566.94;5000526;28;20030;-46
2022/09/01 14:32:26;;;;;;;18.48;7.68;;;;;;;21.71;53.80;101558.09;5013485;28;20041;-45
2022/09/01 14:34:53;;;;;;;8.10;3.13;;;;;;;21.98;53.51;101562.13;5016120;28;20103;-46
2022/09/01 14:41:14;;;;;;;12.35;4.43;;;;;;;22.41;52.90;101551.63;5013665;28;20117;-44
2022/09/01 14:51:49;;;;;;;6.20;2.80;;;;;;;22.57;51.60;101543.50;5007837;28;20036;-45
2022/09/01 14:54:38;;;;;;;4.53;1.30;;;;;;;22.76;51.50;101545.09;5015202;28;20491;-46
2022/09/01 14:57:06;;;;;;;5.80;2.00;;;;;;;22.90;50.89;101548.66;5013276;28;20104;-45
2022/09/01 14:59:53;;;;;;;6.03;1.95;;;;;;;22.98;50.86;101555.09;5015251;28;20058;-45
2022/09/01 15:02:20;;;;;;;5.22;1.38;;;;;;;23.11;50.48;101541.31;5015319;28;20045;-47
2022/09/01 15:04:47;;;;;;;5.80;2.15;;;;;;;23.22;50.38;101540.00;5014410;28;20042;-45
2022/09/01 15:07:14;;;;;;;8.07;1.40;;;;;;;23.20;50.91;101542.47;5012301;28;20096;-45
2022/09/01 15:09:41;;;;;;;5.30;1.65;;;;;;;23.33;50.67;101543.59;5014862;28;20068;-45
2022/09/01 15:12:08;;;;;;;3.85;1.27;;;;;;;23.23;50.68;101544.47;5015076;28;20034;-45
2022/09/01 15:14:36;;;;;;;5.30;1.10;;;;;;;22.99;50.88;101528.44;5015334;28;20380;-45
2022/09/01 15:17:04;;;;;;;6.20;1.42;;;;;;;22.81;51.30;101534.19;5011291;28;20092;-45
2022/09/01 15:19:30;;;;;;;8.60;2.28;;;;;;;22.58;51.65;101530.22;5004949;28;20038;-45
2022/09/01 15:25:53;;;;;;;9.13;2.53;;;;;;;22.24;52.73;101525.03;5007614;28;20160;-44
2022/09/01 15:28:21;;;;;;;6.97;2.22;;;;;;;22.33;52.68;101521.81;5013073;28;20061;-45
2022/09/01 15:34:28;;;;;;;7.45;2.33;;;;;;;22.43;52.87;101513.31;5014619;28;20038;-45
2022/09/01 15:36:55;;;;;;;3.95;1.40;;;;;;;22.37;52.75;101519.78;5014229;28;20088;-45
2022/09/01 15:39:22;;;;;;;7.22;1.67;;;;;;;22.30;52.66;101514.97;5010413;28;20046;-45
2022/09/01 15:41:49;;;;;;;3.63;1.55;;;;;;;22.18;52.71;101504.13;5013795;28;20050;-45
2022/09/01 15:44:16;;;;;;;7.20;1.63;;;;;;;21.91;53.32;101507.78;5014678;28;20038;-45
2022/09/01 15:46:44;;;;;;;5.55;1.80;;;;;;;21.79;53.69;101497.66;5013853;28;20440;-47
2022/09/01 15:49:11;;;;;;;2.47;0.93;;;;;;;21.74;53.80;101490.44;5012307;28;20559;-45
2022/09/01 15:51:41;;;;;;;6.03;1.48;;;;;;;21.56;54.30;101486.00;5013714;28;20038;-46
2022/09/01 15:54:14;;;;;;;5.45;1.73;;;;;;;21.44;55.00;101487.22;4996935;28;20057;-45
2022/09/01 15:56:42;;;;;;;5.55;1.70;;;;;;;21.64;54.99;101490.44;5014253;28;20045;-45
2022/09/01 15:59:10;;;;;;;3.97;1.20;;;;;;;21.74;54.92;101492.44;5013303;28;20044;-45